Time;durP1;ratioP1;P1;durP2;ratioP2;P2;SDS_P1;SDS_P2;PMS_P1;PMS_P2;Temp;Humidity;BMP_temperature;BMP_pressure;BME280_temperature;BME280_humidity;BME280_pressure;Samples;Min_cycle;Max_cycle;Signal;HPM_P1;HPM_P2
2023/04/21 00:00:58;;;;;;;8.00;4.13;;;;;;;8.08;68.40;100478.63;4999596;28;20042;-52
2023/04/21 00:03:26;;;;;;;5.32;2.53;;;;;;;8.06;67.55;100472.56;5000853;28;20650;-52
2023/04/21 00:05:57;;;;;;;13.25;5.22;;;;;;;8.05;68.52;100469.13;4999191;28;20054;-56
2023/04/21 00:08:25;;;;;;;12.80;4.93;;;;;;;8.04;67.29;100471.69;5002261;28;20200;-55
2023/04/21 00:10:52;;;;;;;8.70;5.28;;;;;;;8.02;67.97;100465.63;5002766;28;20109;-55
2023/04/21 00:13:19;;;;;;;12.63;5.32;;;;;;;8.00;68.62;100457.00;5003456;28;20088;-54
2023/04/21 00:15:45;;;;;;;11.05;5.82;;;;;;;8.00;68.63;100452.69;5002717;28;20081;-50
2023/04/21 00:18:12;;;;;;;11.30;5.18;;;;;;;7.98;68.33;100452.66;4996769;28;20046;-50
2023/04/21 00:20:39;;;;;;;9.63;4.78;;;;;;;7.96;67.89;100449.22;4999835;28;20141;-55
2023/04/21 00:23:05;;;;;;;10.77;5.07;;;;;;;7.96;68.25;100444.06;4993260;28;20104;-53
2023/04/21 00:25:32;;;;;;;9.85;5.10;;;;;;;7.93;68.17;100438.84;4996095;28;20175;-54
2023/04/21 00:27:58;;;;;;;10.98;5.15;;;;;;;7.94;68.17;100440.56;4994513;28;20054;-52
2023/04/21 00:30:25;;;;;;;9.07;4.80;;;;;;;7.93;67.28;100431.13;4995073;28;20112;-55
2023/04/21 00:32:53;;;;;;;10.07;4.50;;;;;;;7.92;67.34;100438.81;4992889;28;20073;-50
2023/04/21 00:35:20;;;;;;;12.77;4.30;;;;;;;7.89;68.54;100437.06;4995984;28;20073;-52
2023/04/21 00:37:48;;;;;;;8.18;4.72;;;;;;;7.84;68.39;100438.72;4995586;28;20094;-54
2023/04/21 00:40:15;;;;;;;8.43;4.70;;;;;;;7.81;67.82;100433.53;4996357;28;20074;-51
2023/04/21 00:42:42;;;;;;;8.60;5.05;;;;;;;7.79;68.79;100432.63;4994448;28;20047;-54
2023/04/21 00:45:09;;;;;;;9.15;4.88;;;;;;;7.76;68.24;100430.00;4994785;28;20096;-53
2023/04/21 00:47:35;;;;;;;11.77;4.85;;;;;;;7.72;67.95;100429.97;4994245;28;20497;-53
2023/04/21 00:50:03;;;;;;;10.70;5.38;;;;;;;7.68;67.96;100417.88;4994743;28;20486;-53
2023/04/21 00:52:30;;;;;;;7.75;4.25;;;;;;;7.61;68.23;100418.63;4992205;28;20097;-52
2023/04/21 00:54:58;;;;;;;8.52;5.32;;;;;;;7.61;67.67;100410.00;4978998;28;20145;-53
2023/04/21 00:57:26;;;;;;;10.55;5.07;;;;;;;7.59;68.50;100402.25;4975317;28;20564;-55
2023/04/21 00:59:52;;;;;;;8.50;5.30;;;;;;;7.55;67.46;100406.50;4989936;28;20108;-54
2023/04/21 01:02:20;;;;;;;9.40;4.35;;;;;;;7.51;68.01;100403.84;4984456;28;20481;-51
2023/04/21 01:04:47;;;;;;;16.35;5.35;;;;;;;7.46;68.17;100396.91;4987248;28;20053;-50
2023/04/21 01:07:14;;;;;;;8.95;3.47;;;;;;;7.45;67.90;100402.03;4981675;28;20513;-53
2023/04/21 01:09:41;;;;;;;7.43;4.82;;;;;;;7.42;68.99;100405.44;4982456;28;20132;-53
2023/04/21 01:12:09;;;;;;;10.88;4.93;;;;;;;7.40;68.36;100401.94;4980416;28;20039;-50
2023/04/21 01:14:38;;;;;;;14.80;5.63;;;;;;;7.38;68.86;100400.19;4985181;28;20054;-51
2023/04/21 01:17:06;;;;;;;12.07;5.63;;;;;;;7.35;68.98;100403.59;4986102;28;20054;-53
2023/04/21 01:19:38;;;;;;;13.05;4.43;;;;;;;7.34;67.99;100401.88;4990801;28;20050;-51
2023/04/21 01:22:09;;;;;;;10.25;5.18;;;;;;;7.32;68.77;100393.25;4984587;28;20549;-53
2023/04/21 01:24:39;;;;;;;10.07;4.97;;;;;;;7.30;69.09;100392.38;4982403;28;20050;-53
2023/04/21 01:27:11;;;;;;;12.13;5.53;;;;;;;7.27;68.99;100380.31;4981962;28;20047;-52
2023/04/21 01:29:40;;;;;;;7.90;4.60;;;;;;;7.26;67.98;100375.13;4977641;28;20116;-55
2023/04/21 01:32:10;;;;;;;6.65;5.03;;;;;;;7.24;69.13;100374.22;4974835;28;20178;-54
2023/04/21 01:34:38;;;;;;;10.25;4.50;;;;;;;7.22;67.61;100370.75;4976528;28;20051;-55
2023/04/21 01:37:08;;;;;;;12.27;5.78;;;;;;;7.20;69.18;100363.84;4985767;28;20050;-54
2023/04/21 01:39:39;;;;;;;13.35;4.85;;;;;;;7.18;68.63;100359.53;4981135;28;20058;-54
2023/04/21 01:42:06;;;;;;;13.13;5.28;;;;;;;7.18;67.93;100355.25;4982132;28;20097;-53
2023/04/21 01:44:34;;;;;;;8.18;5.70;;;;;;;7.18;68.36;100360.41;4982575;28;20047;-54
2023/04/21 01:47:01;;;;;;;8.18;5.18;;;;;;;7.24;68.82;100356.19;4984485;28;20109;-53
2023/04/21 01:49:27;;;;;;;14.98;6.28;;;;;;;7.27;68.99;100353.66;4983709;28;20148;-51
2023/04/21 01:51:54;;;;;;;12.70;6.10;;;;;;;7.30;69.07;100353.72;4980255;28;20100;-53
2023/04/21 01:54:21;;;;;;;16.02;5.68;;;;;;;7.32;69.46;100352.88;4985966;28;20050;-50
2023/04/21 01:56:47;;;;;;;10.18;5.35;;;;;;;7.36;70.01;100356.38;4978065;28;20072;-55
2023/04/21 01:59:14;;;;;;;13.20;5.55;;;;;;;7.38;69.32;100357.28;4983647;28;20066;-51
2023/04/21 02:01:40;;;;;;;18.30;6.10;;;;;;;7.42;70.02;100361.63;4984042;28;20081;-51
2023/04/21 02:04:07;;;;;;;15.07;6.53;;;;;;;7.41;69.95;100352.16;4979911;28;20410;-53
2023/04/21 02:06:34;;;;;;;16.45;4.32;;;;;;;7.39;69.97;100353.84;4984989;28;20544;-50
2023/04/21 02:09:01;;;;;;;12.18;4.50;;;;;;;7.34;68.64;100355.50;4980925;28;20486;-53
2023/04/21 02:11:28;;;;;;;14.10;5.55;;;;;;;7.31;68.96;100346.00;4979841;28;20074;-53
2023/04/21 02:13:55;;;;;;;12.73;5.57;;;;;;;7.27;69.84;100339.06;4985146;28;20137;-50
2023/04/21 02:16:25;;;;;;;10.48;5.18;;;;;;;7.24;69.18;100330.41;4981196;28;20446;-50
2023/04/21 02:18:53;;;;;;;11.27;6.53;;;;;;;7.19;69.20;100328.63;4981995;28;20482;-50
2023/04/21 02:21:20;;;;;;;13.48;5.97;;;;;;;7.15;68.75;100321.69;4984861;28;20042;-52
2023/04/21 02:23:47;;;;;;;16.83;6.18;;;;;;;7.11;69.26;100324.19;4985943;28;20050;-50
2023/04/21 02:26:14;;;;;;;12.10;5.63;;;;;;;7.07;69.21;100310.41;4980238;28;20097;-55
2023/04/21 02:28:40;;;;;;;21.98;6.65;;;;;;;7.02;70.37;100312.03;4984843;28;20077;-52
2023/04/21 02:31:07;;;;;;;11.13;4.97;;;;;;;6.97;69.91;100304.25;4978360;28;20050;-47
2023/04/21 02:33:35;;;;;;;14.20;5.80;;;;;;;6.96;70.82;100299.06;4976233;28;20178;-52
2023/04/21 02:36:02;;;;;;;13.52;5.85;;;;;;;6.92;69.15;100304.16;4974978;28;20125;-52
2023/04/21 02:38:29;;;;;;;15.13;7.60;;;;;;;6.91;69.33;100306.72;4985895;28;20098;-51
2023/04/21 02:40:56;;;;;;;13.40;6.78;;;;;;;6.89;69.87;100305.84;4982262;28;20564;-52
2023/04/21 02:43:23;;;;;;;13.45;7.60;;;;;;;6.88;70.44;100297.25;4981209;28;20538;-53
2023/04/21 02:45:50;;;;;;;15.73;6.22;;;;;;;6.87;69.21;100292.94;4979357;28;20082;-52
2023/04/21 02:48:21;;;;;;;15.40;5.95;;;;;;;6.86;70.00;100286.03;4978409;28;20570;-54
2023/04/21 02:50:49;;;;;;;12.32;6.22;;;;;;;6.85;70.79;100294.59;4976552;28;20462;-52
2023/04/21 02:53:16;;;;;;;12.80;4.85;;;;;;;6.83;69.34;100280.84;4976428;28;20455;-53
2023/04/21 02:55:42;;;;;;;20.50;6.70;;;;;;;6.84;71.07;100279.13;4978024;28;20078;-52
2023/04/21 02:58:09;;;;;;;15.05;4.93;;;;;;;6.83;69.72;100270.56;4980792;28;20590;-52
2023/04/21 03:00:36;;;;;;;12.35;5.97;;;;;;;6.84;69.97;100267.13;4985600;28;20096;-53
2023/04/21 03:03:03;;;;;;;11.98;6.43;;;;;;;6.85;70.58;100263.72;4985004;28;20070;-53
2023/04/21 03:05:30;;;;;;;15.35;7.30;;;;;;;6.85;71.08;100268.84;4989490;28;20050;-53
2023/04/21 03:07:57;;;;;;;14.05;5.35;;;;;;;6.84;72.19;100272.28;4979953;28;20523;-53
2023/04/21 03:10:23;;;;;;;16.20;6.63;;;;;;;6.87;70.93;100272.34;4981262;28;20046;-53
2023/04/21 03:12:50;;;;;;;12.52;6.57;;;;;;;6.90;72.03;100267.25;4986055;28;20043;-54
2023/04/21 03:15:18;;;;;;;15.55;6.55;;;;;;;6.94;70.95;100263.88;4981774;28;20054;-54
2023/04/21 03:17:44;;;;;;;16.90;6.70;;;;;;;6.97;72.07;100263.06;4977089;28;20058;-53
2023/04/21 03:20:11;;;;;;;12.70;6.32;;;;;;;7.01;72.06;100269.09;4984664;28;20054;-52
2023/04/21 03:22:38;;;;;;;16.23;7.22;;;;;;;7.04;71.34;100269.16;4978349;28;20100;-53
2023/04/21 03:25:06;;;;;;;15.35;6.75;;;;;;;7.08;72.26;100270.94;4984693;28;20042;-52
2023/04/21 03:27:33;;;;;;;16.52;6.78;;;;;;;7.11;72.05;100260.69;4981312;28;20079;-53
2023/04/21 03:30:00;;;;;;;17.85;7.57;;;;;;;7.14;71.42;100245.28;4980526;28;20516;-52
2023/04/21 03:32:27;;;;;;;16.30;7.25;;;;;;;7.18;72.57;100252.19;4971661;28;20108;-53
2023/04/21 03:34:54;;;;;;;18.33;7.30;;;;;;;7.20;71.40;100229.03;4977118;28;20063;-51
2023/04/21 03:37:20;;;;;;;11.55;6.72;;;;;;;7.23;72.82;100233.38;4976828;28;20042;-54
2023/04/21 03:39:47;;;;;;;15.52;6.68;;;;;;;7.23;72.77;100223.06;4981279;28;20120;-50
2023/04/21 03:42:14;;;;;;;11.45;6.63;;;;;;;7.22;73.09;100211.88;4976961;28;20049;-52
2023/04/21 03:44:40;;;;;;;23.20;8.10;;;;;;;7.25;73.32;100198.16;4978557;28;20457;-50
2023/04/21 03:47:07;;;;;;;22.20;5.70;;;;;;;7.27;72.29;100188.75;4978209;28;22009;-52
2023/04/21 03:49:33;;;;;;;18.13;6.40;;;;;;;7.27;73.17;100187.06;4978723;28;20128;-52
2023/04/21 03:52:00;;;;;;;16.40;6.68;;;;;;;7.29;73.69;100187.06;4977538;28;20062;-54
2023/04/21 03:54:27;;;;;;;13.10;6.03;;;;;;;7.30;73.23;100174.19;4979945;28;20134;-52
2023/04/21 03:56:53;;;;;;;18.52;7.18;;;;;;;7.33;73.23;100163.94;4977937;28;20562;-54
2023/04/21 03:59:20;;;;;;;14.40;6.30;;;;;;;7.34;74.21;100164.81;4979064;28;20062;-50
2023/04/21 04:01:47;;;;;;;15.68;7.38;;;;;;;7.37;72.58;100143.38;4980534;28;20050;-52
2023/04/21 04:04:14;;;;;;;15.82;7.15;;;;;;;7.38;73.48;100151.13;4975778;28;20563;-50
2023/04/21 04:06:41;;;;;;;21.40;8.20;;;;;;;7.40;72.38;100144.25;4979230;28;20089;-51
2023/04/21 04:09:07;;;;;;;16.48;7.75;;;;;;;7.41;73.97;100143.44;4974682;28;20451;-50
2023/04/21 04:11:34;;;;;;;15.60;6.72;;;;;;;7.44;73.62;100145.16;4978662;28;20043;-49
2023/04/21 04:14:01;;;;;;;15.60;7.32;;;;;;;7.45;73.01;100152.91;4974852;28;20129;-51
2023/04/21 04:16:28;;;;;;;17.38;6.60;;;;;;;7.45;72.77;100137.47;4976402;28;20129;-52
2023/04/21 04:18:55;;;;;;;11.68;6.05;;;;;;;7.45;74.07;100142.63;4975043;28;20116;-50
2023/04/21 04:21:21;;;;;;;17.40;7.75;;;;;;;7.48;72.74;100136.63;4979255;28;20073;-54
2023/04/21 04:23:50;;;;;;;14.40;6.15;;;;;;;7.50;73.88;100134.06;4974619;28;20050;-52
2023/04/21 04:26:17;;;;;;;11.70;6.63;;;;;;;7.50;74.04;100126.34;4978061;28;20097;-50
2023/04/21 04:28:44;;;;;;;19.92;7.55;;;;;;;7.50;73.61;100119.44;4982293;28;20050;-51
2023/04/21 04:31:12;;;;;;;16.50;6.85;;;;;;;7.51;73.69;100118.63;4979305;28;20101;-51
2023/04/21 04:33:41;;;;;;;18.77;7.78;;;;;;;7.54;73.42;100115.22;4980930;28;20046;-51
2023/04/21 04:36:10;;;;;;;24.30;7.18;;;;;;;7.52;73.04;100111.72;4988958;28;20050;-55
2023/04/21 04:38:37;;;;;;;13.75;6.60;;;;;;;7.50;73.41;100113.44;4977571;28;20054;-53
2023/04/21 04:41:05;;;;;;;17.83;6.90;;;;;;;7.53;72.63;100114.34;4986021;28;20046;-53
2023/04/21 04:43:32;;;;;;;15.93;7.15;;;;;;;7.53;73.08;100098.03;4980522;28;20046;-52
2023/04/21 04:46:00;;;;;;;15.57;7.35;;;;;;;7.54;72.97;100108.31;4977462;28;20046;-52
2023/04/21 04:48:26;;;;;;;12.35;4.75;;;;;;;7.53;74.02;100104.03;4981312;28;20445;-53
2023/04/21 04:50:53;;;;;;;12.63;6.35;;;;;;;7.53;72.78;100103.19;4979090;28;20065;-51
2023/04/21 04:53:20;;;;;;;16.98;6.20;;;;;;;7.55;72.71;100096.31;4977525;28;20132;-53
2023/04/21 04:55:47;;;;;;;15.05;7.97;;;;;;;7.54;73.04;100094.59;4978553;28;20046;-52
2023/04/21 04:58:13;;;;;;;14.82;6.40;;;;;;;7.52;73.51;100101.44;4980696;28;20134;-55
2023/04/21 05:00:40;;;;;;;19.70;7.45;;;;;;;7.54;73.11;100107.47;4988103;28;20042;-53
2023/04/21 05:03:06;;;;;;;17.77;6.80;;;;;;;7.53;73.04;100100.59;4981382;28;20122;-53
2023/04/21 05:05:33;;;;;;;12.38;6.80;;;;;;;7.54;73.58;100089.44;4986360;28;20050;-54
2023/04/21 05:08:00;;;;;;;17.08;6.60;;;;;;;7.54;73.69;100079.13;4983557;28;20065;-53
2023/04/21 05:10:26;;;;;;;9.85;5.50;;;;;;;7.55;73.68;100075.69;4988087;28;20651;-52
2023/04/21 05:12:53;;;;;;;10.85;8.05;;;;;;;7.55;72.90;100070.53;4983265;28;20043;-50
2023/04/21 05:15:21;;;;;;;17.20;7.22;;;;;;;7.54;73.46;100074.81;4987090;28;20058;-50
2023/04/21 05:17:48;;;;;;;13.98;6.72;;;;;;;7.57;74.02;100079.16;4982615;28;20539;-52
2023/04/21 05:20:14;;;;;;;13.00;6.03;;;;;;;7.55;73.59;100075.69;4988224;28;20050;-54
2023/04/21 05:22:41;;;;;;;15.57;7.85;;;;;;;7.56;73.04;100074.81;4986697;28;20077;-54
2023/04/21 05:25:10;;;;;;;11.65;6.43;;;;;;;7.58;73.03;100080.88;4982600;28;20182;-54
2023/04/21 05:27:37;;;;;;;14.18;6.20;;;;;;;7.56;73.04;100096.31;4984961;28;20042;-53
2023/04/21 05:30:03;;;;;;;11.80;6.65;;;;;;;7.56;74.35;100098.91;4975981;28;20133;-52
2023/04/21 05:32:30;;;;;;;15.13;5.32;;;;;;;7.57;74.01;100094.63;4976318;28;20665;-54
2023/04/21 05:34:58;;;;;;;10.52;5.93;;;;;;;7.56;72.73;100082.56;4975658;28;20053;-51
2023/04/21 05:37:25;;;;;;;13.27;6.43;;;;;;;7.57;73.13;100084.31;4978541;28;20054;-54
2023/04/21 05:39:52;;;;;;;14.02;7.18;;;;;;;7.58;72.56;100075.72;4976224;28;20569;-54
2023/04/21 05:42:19;;;;;;;13.77;5.45;;;;;;;7.58;72.49;100065.41;4976236;28;20113;-56
2023/04/21 05:44:45;;;;;;;14.07;7.05;;;;;;;7.59;73.62;100062.84;4978567;28;20109;-51
2023/04/21 05:47:12;;;;;;;12.75;6.88;;;;;;;7.62;72.92;100055.97;4976240;28;20070;-54
2023/04/21 05:49:38;;;;;;;12.32;5.88;;;;;;;7.63;71.67;100053.41;4974996;28;20058;-56
2023/04/21 05:52:09;;;;;;;11.13;6.03;;;;;;;7.65;72.54;100051.75;4976129;28;20101;-55
2023/04/21 05:54:35;;;;;;;12.77;4.47;;;;;;;7.65;72.65;100040.56;4978198;28;20636;-53
2023/04/21 05:57:02;;;;;;;14.45;6.43;;;;;;;7.66;72.10;100030.25;4966217;28;20070;-53
2023/04/21 05:59:29;;;;;;;13.75;6.47;;;;;;;7.68;72.80;100023.41;4958799;28;20502;-52
2023/04/21 06:01:55;;;;;;;14.82;6.28;;;;;;;7.69;72.52;100014.81;4959715;28;20105;-50
2023/04/21 06:04:22;;;;;;;14.45;7.28;;;;;;;7.71;72.03;100020.84;4959353;28;20038;-53
2023/04/21 06:06:49;;;;;;;13.77;6.35;;;;;;;7.71;72.97;100020.84;4958029;28;20054;-54
2023/04/21 06:09:16;;;;;;;12.27;6.22;;;;;;;7.72;72.58;100006.25;4975476;28;20570;-52
2023/04/21 06:11:43;;;;;;;14.05;6.13;;;;;;;7.71;71.83;100010.53;4975200;28;20880;-54
2023/04/21 06:14:09;;;;;;;11.88;6.10;;;;;;;7.71;71.76;99996.78;4978407;28;20062;-55
2023/04/21 06:16:36;;;;;;;11.40;3.78;;;;;;;7.70;72.27;99988.19;4980687;28;20446;-55
2023/04/21 06:19:02;;;;;;;10.38;5.85;;;;;;;7.66;72.56;100001.03;4980064;28;20070;-57
2023/04/21 06:21:29;;;;;;;11.20;6.15;;;;;;;7.62;71.53;99995.00;4981166;28;20053;-52
2023/04/21 06:23:56;;;;;;;10.10;5.32;;;;;;;7.61;72.21;99985.53;4985229;28;20121;-51
2023/04/21 06:26:23;;;;;;;12.95;6.18;;;;;;;7.62;71.56;99974.38;4982735;28;20129;-51
2023/04/21 06:28:50;;;;;;;13.88;5.78;;;;;;;7.62;71.93;99970.91;4980048;28;20104;-52
2023/04/21 06:31:17;;;;;;;12.77;6.13;;;;;;;7.64;72.96;99967.53;4980293;28;20050;-55
2023/04/21 06:33:44;;;;;;;10.40;5.95;;;;;;;7.66;71.72;99960.66;4980771;28;20046;-52
2023/04/21 06:36:11;;;;;;;13.13;6.60;;;;;;;7.67;71.66;99957.22;4986467;28;20251;-52
2023/04/21 06:38:40;;;;;;;14.25;7.10;;;;;;;7.67;72.65;99941.75;4984924;28;20096;-53
2023/04/21 06:41:07;;;;;;;13.93;5.80;;;;;;;7.68;72.07;99945.19;4980725;28;20077;-52
2023/04/21 06:43:33;;;;;;;13.40;4.97;;;;;;;7.70;72.71;99926.31;4981486;28;20754;-51
2023/04/21 06:46:00;;;;;;;13.60;6.30;;;;;;;7.72;71.42;99924.63;4985633;28;20093;-51
2023/04/21 06:48:28;;;;;;;10.55;6.05;;;;;;;7.73;71.78;99915.16;4978487;28;20518;-52
2023/04/21 06:50:55;;;;;;;12.95;6.95;;;;;;;7.75;72.74;99923.78;4977343;28;20054;-53
2023/04/21 06:53:22;;;;;;;13.13;6.50;;;;;;;7.75;71.35;99928.06;4976908;28;20058;-53
2023/04/21 06:55:48;;;;;;;11.50;5.88;;;;;;;7.62;72.99;99933.13;4980536;28;20053;-50
2023/04/21 06:58:15;;;;;;;10.55;5.75;;;;;;;7.52;73.98;99937.34;4980394;28;20054;-50
2023/04/21 07:00:41;;;;;;;12.68;6.05;;;;;;;7.51;72.61;99925.31;4978427;28;20097;-57
2023/04/21 07:03:08;;;;;;;9.75;5.72;;;;;;;7.56;73.26;99927.91;4979642;28;20742;-54
2023/04/21 07:05:35;;;;;;;12.35;6.70;;;;;;;7.62;72.38;99906.47;4983052;28;20134;-55
2023/04/21 07:08:01;;;;;;;12.13;5.88;;;;;;;7.68;72.00;99907.41;4981188;28;20054;-53
2023/04/21 07:10:28;;;;;;;12.27;6.18;;;;;;;7.75;72.19;99902.28;4985764;28;20494;-53
2023/04/21 07:12:55;;;;;;;10.32;6.03;;;;;;;7.79;72.56;99898.84;4983986;28;20061;-51
2023/04/21 07:15:21;;;;;;;11.63;5.95;;;;;;;7.80;72.31;99900.59;4975907;28;20050;-57
2023/04/21 07:17:48;;;;;;;9.57;5.60;;;;;;;7.82;72.60;99904.03;4974704;28;20503;-54
2023/04/21 07:20:17;;;;;;;11.48;4.07;;;;;;;7.84;72.52;99902.34;4984365;28;20814;-57
2023/04/21 07:22:44;;;;;;;13.13;6.18;;;;;;;7.88;72.64;99908.38;4977995;28;20054;-53
2023/04/21 07:25:11;;;;;;;13.02;7.05;;;;;;;7.87;73.18;99902.34;4982833;28;20042;-54
2023/04/21 07:27:38;;;;;;;9.23;4.95;;;;;;;7.91;73.42;99898.94;4981939;28;20498;-56
2023/04/21 07:30:05;;;;;;;12.85;5.82;;;;;;;7.96;73.43;99896.38;4979333;28;20050;-54
2023/04/21 07:32:33;;;;;;;8.63;5.05;;;;;;;7.93;73.56;99886.91;4978376;28;20120;-53
2023/04/21 07:35:00;;;;;;;10.88;5.75;;;;;;;7.96;73.33;99886.94;4980548;28;20057;-53
2023/04/21 07:37:27;;;;;;;8.25;5.03;;;;;;;7.98;72.82;99895.53;4980750;28;20414;-57
2023/04/21 07:39:54;;;;;;;8.43;6.50;;;;;;;7.99;73.59;99891.25;4979182;28;20058;-56
2023/04/21 07:42:21;;;;;;;9.60;5.35;;;;;;;7.97;73.52;99896.38;4981553;28;20054;-55
2023/04/21 07:44:48;;;;;;;7.60;5.43;;;;;;;7.97;73.59;99883.50;4981757;28;20042;-55
2023/04/21 07:47:14;;;;;;;10.52;4.93;;;;;;;8.05;73.86;99887.84;4982203;28;20054;-53
2023/04/21 07:49:41;;;;;;;9.50;5.03;;;;;;;8.15;73.66;99884.47;4981668;28;20494;-56
2023/04/21 07:52:07;;;;;;;10.07;5.00;;;;;;;8.25;73.49;99879.31;4983083;28;20050;-51
2023/04/21 07:54:34;;;;;;;9.50;5.25;;;;;;;8.31;72.72;99877.63;4982863;28;20458;-56
2023/04/21 07:57:01;;;;;;;9.02;4.75;;;;;;;8.40;73.01;99876.81;4980929;28;20092;-54
2023/04/21 07:59:28;;;;;;;10.88;5.75;;;;;;;8.47;73.02;99872.50;4981267;28;20097;-53
2023/04/21 08:01:55;;;;;;;8.45;5.15;;;;;;;8.57;72.49;99878.59;4986231;28;20101;-57
2023/04/21 08:04:22;;;;;;;9.07;5.53;;;;;;;8.64;73.05;99875.19;4983415;28;20169;-56
2023/04/21 08:06:49;;;;;;;8.40;4.72;;;;;;;8.71;73.36;99866.59;4989119;28;20051;-54
2023/04/21 08:09:16;;;;;;;8.98;5.07;;;;;;;8.77;73.21;99864.88;4983766;28;20058;-57
2023/04/21 08:11:43;;;;;;;8.38;4.93;;;;;;;8.82;72.34;99868.34;4983774;28;21276;-56
2023/04/21 08:14:10;;;;;;;7.13;4.88;;;;;;;8.86;72.53;99867.47;4982013;28;20675;-57
2023/04/21 08:16:39;;;;;;;9.82;4.45;;;;;;;8.89;72.52;99874.38;4978691;28;20057;-55
2023/04/21 08:19:06;;;;;;;9.48;4.88;;;;;;;8.89;72.87;99864.91;4978004;28;20054;-55
2023/04/21 08:21:33;;;;;;;9.45;4.93;;;;;;;8.90;72.37;99861.47;4982593;28;20104;-55
2023/04/21 08:24:00;;;;;;;7.45;4.85;;;;;;;8.95;72.41;99869.22;4980621;28;20162;-54
2023/04/21 08:26:28;;;;;;;7.18;4.93;;;;;;;8.95;72.33;99864.91;4984847;28;20066;-55
2023/04/21 08:28:56;;;;;;;8.05;5.13;;;;;;;8.95;72.80;99859.72;4984811;28;20054;-54
2023/04/21 08:31:23;;;;;;;9.00;4.50;;;;;;;8.96;72.58;99864.06;4983993;28;20640;-55
2023/04/21 08:33:50;;;;;;;8.57;4.80;;;;;;;8.97;72.72;99855.44;4982651;28;20066;-56
2023/04/21 08:36:27;;;;;;;8.27;4.93;;;;;;;9.00;72.57;99859.75;4987248;28;20050;-57
2023/04/21 08:38:56;;;;;;;10.57;6.80;;;;;;;9.00;72.90;99868.38;4982888;28;20050;-55
2023/04/21 08:41:24;;;;;;;7.70;4.43;;;;;;;9.02;72.58;99864.91;4980551;28;20054;-55
2023/04/21 08:43:51;;;;;;;7.90;5.18;;;;;;;8.99;72.64;99861.44;4981661;28;20051;-56
2023/04/21 08:46:18;;;;;;;8.57;6.63;;;;;;;8.97;72.75;99863.19;4982933;28;20055;-56
2023/04/21 08:48:46;;;;;;;7.68;4.05;;;;;;;8.97;72.77;99858.03;4979281;28;20133;-56
2023/04/21 08:51:19;;;;;;;8.52;4.82;;;;;;;8.98;72.94;99859.75;4979558;28;20054;-56
2023/04/21 08:53:46;;;;;;;8.55;4.78;;;;;;;8.99;72.63;99852.88;4986699;28;20461;-55
2023/04/21 08:56:13;;;;;;;4.95;3.47;;;;;;;8.97;72.89;99852.84;4982452;28;20154;-54
2023/04/21 08:58:40;;;;;;;8.30;5.45;;;;;;;8.96;73.44;99853.72;4980537;28;20085;-56
2023/04/21 09:01:07;;;;;;;6.43;4.93;;;;;;;8.98;73.00;99849.41;4983075;28;20042;-55
2023/04/21 09:03:34;;;;;;;6.88;5.13;;;;;;;9.00;72.92;99847.69;4981683;28;20781;-55
2023/04/21 09:06:05;;;;;;;6.60;5.25;;;;;;;9.05;72.97;99846.84;4979190;28;20057;-62
2023/04/21 09:08:33;;;;;;;7.45;4.20;;;;;;;9.06;73.37;99840.81;4983495;28;20581;-53
2023/04/21 09:11:00;;;;;;;8.52;5.13;;;;;;;9.06;73.35;99848.56;4983804;28;20049;-54
2023/04/21 09:13:30;;;;;;;6.68;5.00;;;;;;;9.06;73.21;99838.22;4984992;28;20065;-55
2023/04/21 09:15:57;;;;;;;;;;;;;;;8.99;73.64;99840.78;4980690;28;20458;-56
2023/04/21 09:18:26;;;;;;;5.30;3.67;;;;;;;9.10;72.67;99832.19;4987537;28;19957;-56
2023/04/21 09:21:10;;;;;;;6.68;3.28;;;;;;;9.14;73.10;99833.91;4981160;28;20648;-54
2023/04/21 09:26:22;;;;;;;7.18;2.65;;;;;;;9.26;73.03;99833.88;5039501;28;20841;-56
2023/04/21 09:28:51;;;;;;;5.65;2.42;;;;;;;9.33;72.87;99834.78;5002623;28;20434;-55
2023/04/21 09:31:23;;;;;;;5.40;2.67;;;;;;;9.41;73.10;99837.34;4995720;28;20093;-57
2023/04/21 09:33:55;;;;;;;6.03;2.80;;;;;;;9.49;73.27;99827.84;5001167;28;20096;-56
2023/04/21 09:36:28;;;;;;;6.20;2.33;;;;;;;9.56;73.18;99833.00;4997080;28;20153;-56
2023/04/21 09:41:31;;;;;;;4.82;2.35;;;;;;;9.58;73.40;99833.84;5055420;28;20390;-56
2023/04/21 09:44:00;;;;;;;4.35;2.13;;;;;;;9.56;72.84;99830.41;5032283;28;20149;-57
2023/04/21 09:46:29;;;;;;;6.72;3.22;;;;;;;9.52;72.99;99829.56;5023834;28;20516;-55
2023/04/21 09:49:00;;;;;;;4.68;2.15;;;;;;;9.49;73.40;99835.59;5045055;28;20045;-55
2023/04/21 09:51:30;;;;;;;8.25;2.30;;;;;;;9.45;72.98;99833.88;5046176;28;20136;-56
2023/04/21 09:54:19;;;;;;;6.40;2.13;;;;;;;9.37;73.11;99838.19;5035239;28;20045;-54
2023/04/21 09:56:58;;;;;;;5.07;2.65;;;;;;;9.33;73.67;99845.09;5042769;28;20048;-57
2023/04/21 09:59:28;;;;;;;6.63;3.28;;;;;;;9.30;73.76;99833.91;5044245;28;20464;-57
2023/04/21 10:01:56;;;;;;;;;;;;;;;9.18;73.72;99835.63;5047271;28;20045;-54
2023/04/21 10:04:24;;;;;;;5.13;2.33;;;;;;;9.21;73.99;99840.78;5050612;28;19942;-55
2023/04/21 10:06:52;;;;;;;6.65;2.97;;;;;;;9.12;74.43;99840.81;5043211;28;20144;-54
2023/04/21 10:09:22;;;;;;;6.75;2.70;;;;;;;9.13;73.87;99847.69;5038298;28;20044;-57
2023/04/21 10:11:51;;;;;;;7.95;3.85;;;;;;;9.06;73.80;99841.66;5045091;28;20036;-55
2023/04/21 10:14:18;;;;;;;7.25;2.90;;;;;;;9.08;73.95;99852.84;5047292;28;20094;-56
2023/04/21 10:16:56;;;;;;;8.02;3.65;;;;;;;9.05;74.17;99854.59;5037924;28;20102;-56
2023/04/21 10:19:24;;;;;;;7.70;3.60;;;;;;;9.02;74.04;99841.66;5040626;28;20144;-57
2023/04/21 10:21:54;;;;;;;6.95;3.50;;;;;;;8.96;74.91;99838.22;5047330;28;20079;-57
2023/04/21 10:24:20;;;;;;;8.15;3.58;;;;;;;8.96;74.80;99834.78;5035625;28;20115;-55
2023/04/21 10:26:49;;;;;;;9.13;4.13;;;;;;;8.99;75.24;99834.78;5037132;28;20119;-56
2023/04/21 10:29:30;;;;;;;8.98;4.05;;;;;;;9.08;75.01;99823.56;5035640;28;20045;-55
2023/04/21 10:32:37;;;;;;;10.75;4.20;;;;;;;9.24;75.17;99821.84;5040752;28;20131;-56
2023/04/21 10:35:08;;;;;;;7.72;3.97;;;;;;;9.39;75.45;99820.94;5047037;28;20052;-54
2023/04/21 10:37:35;;;;;;;9.00;3.97;;;;;;;9.50;75.91;99821.78;5043388;28;20519;-57
2023/04/21 10:40:07;;;;;;;7.60;3.35;;;;;;;9.56;76.28;99815.75;5041061;28;20408;-56
2023/04/21 10:42:35;;;;;;;10.43;4.28;;;;;;;9.66;75.91;99811.41;5036075;28;20071;-55
2023/04/21 10:45:07;;;;;;;9.38;4.35;;;;;;;9.59;75.76;99814.91;5037419;28;20049;-55
2023/04/21 10:55:29;;;;;;;5.13;3.28;;;;;;;9.07;76.34;99812.38;5044787;28;21131;-57
2023/04/21 10:57:57;;;;;;;4.78;2.72;;;;;;;9.09;77.12;99817.56;5000574;27;20108;-56
2023/04/21 11:00:25;;;;;;;6.00;3.55;;;;;;;9.11;77.61;99815.81;4995633;28;20053;-54
2023/04/21 11:05:35;;;;;;;5.63;3.60;;;;;;;9.46;77.12;99804.56;5048782;27;20402;-57
2023/04/21 11:08:04;;;;;;;4.78;2.05;;;;;;;9.72;77.06;99806.22;5025261;28;20575;-55
2023/04/21 11:10:41;;;;;;;4.15;2.97;;;;;;;9.97;76.28;99811.31;5022686;28;20515;-57
2023/04/21 11:13:08;;;;;;;5.15;3.38;;;;;;;10.01;76.36;99802.69;5018830;28;20693;-55
2023/04/21 11:15:34;;;;;;;5.45;2.17;;;;;;;9.96;74.71;99804.41;5021447;28;20077;-57
2023/04/21 11:18:02;;;;;;;3.83;1.70;;;;;;;9.95;74.37;99800.13;5018260;28;20046;-52
2023/04/21 11:20:29;;;;;;;6.63;2.63;;;;;;;9.97;74.21;99806.13;5025264;28;20068;-56
2023/04/21 11:22:56;;;;;;;5.32;2.42;;;;;;;9.99;73.90;99798.38;5018088;28;20497;-56
2023/04/21 11:25:23;;;;;;;5.30;2.10;;;;;;;10.14;74.99;99802.63;5040428;28;20092;-56
2023/04/21 11:27:54;;;;;;;6.03;2.97;;;;;;;10.35;74.40;99800.78;5038650;28;20098;-57
2023/04/21 11:30:32;;;;;;;5.60;2.65;;;;;;;10.61;74.85;99802.38;5037322;28;20061;-56
2023/04/21 11:32:59;;;;;;;10.82;3.13;;;;;;;10.87;74.02;99793.53;5018236;28;20199;-56
2023/04/21 11:35:26;;;;;;;5.85;2.10;;;;;;;11.00;73.28;99800.34;5038613;28;20056;-55
2023/04/21 11:37:54;;;;;;;9.23;3.50;;;;;;;11.13;72.92;99795.06;5033958;28;20118;-56
2023/04/21 11:40:20;;;;;;;6.78;3.15;;;;;;;11.18;72.16;99799.31;5019496;28;20052;-57
2023/04/21 11:42:47;;;;;;;6.15;2.30;;;;;;;11.15;70.38;99803.69;5033413;28;20144;-55
2023/04/21 11:45:17;;;;;;;8.77;3.17;;;;;;;11.28;71.26;99800.09;5039114;28;20102;-56
2023/04/21 11:47:48;;;;;;;6.95;2.70;;;;;;;11.32;70.37;99801.78;5012971;28;20045;-55
2023/04/21 11:50:31;;;;;;;6.38;3.25;;;;;;;11.30;69.66;99803.56;5034841;28;20045;-55